Terminal Aerodrome Forecast
Issued by NWS La Crosse, WI

Home | Current Version | Previous Version | Text Only | Print | Product List | Glossary On
Versions: 1 2 3 4 5 6 7 8 9 10 11 12 13 14 15 16 17 18 19 20 21 22 23 24 25 26 27 28 29 30 31 32 33
000
FTUS43 KARX 020025 AAA
TAFLSE
TAF AMD
KLSE 020025Z 0200/0224 VRB04KT P6SM SKC
      TEMPO 0201/0203 08011KT
     FM020800 VRB03KT P6SM VCFG SCT004
      TEMPO 0209/0212 1/2SM FG BKN003
     FM021400 18004KT P6SM SKC
     FM021700 24006KT P6SM SCT060=

USA.gov is the U.S. government's official web portal to all federal, state and local government web resources and services.